Terminal Aerodrome Forecast
Issued by NWS Greer, SC

Current Version | Previous Version | Text Only | Print | Product List | Glossary On
Versions: 1 2 3 4 5 6 7 8 9 10 11 12 13 14 15 16 17 18 19 20 21 22 23 24 25 26 27 28 29 30 31 32 33 34 35
000
FTUS42 KGSP 271500 AAA
TAFAVL
TAF AMD
KAVL 271500Z 2715/2812 34011G20KT P6SM FEW020 BKN040
     FM272000 33010G18KT P6SM SCT040
     FM280000 32011G18KT P6SM SCT250=

USA.gov is the U.S. government's official web portal to all federal, state and local government web resources and services.